Time;durP1;ratioP1;P1;durP2;ratioP2;P2;SDS_P1;SDS_P2;PMS_P1;PMS_P2;Temp;Humidity;BMP_temperature;BMP_pressure;BME280_temperature;BME280_humidity;BME280_pressure;Samples;Min_cycle;Max_cycle;Signal;HPM_P1;HPM_P2
2024/03/01 00:01:25;;;;;;;36.57;21.17;;;7.60;99.90;;;;;;796436;179;26442;-78
2024/03/01 00:03:52;;;;;;;36.40;21.07;;;7.50;99.90;;;;;;804064;177;26977;-80
2024/03/01 00:06:19;;;;;;;37.80;21.53;;;7.50;99.90;;;;;;796820;179;26419;-79
2024/03/01 00:08:45;;;;;;;38.87;21.67;;;7.60;99.90;;;;;;799034;178;26434;-79
2024/03/01 00:11:12;;;;;;;36.33;20.40;;;7.60;99.90;;;;;;794160;180;26468;-80
2024/03/01 00:13:38;;;;;;;38.80;21.60;;;7.60;99.90;;;;;;796934;180;26443;-78
2024/03/01 00:16:05;;;;;;;38.30;21.73;;;7.60;99.90;;;;;;797832;179;26415;-80
2024/03/01 00:18:32;;;;;;;38.33;20.87;;;7.60;99.90;;;;;;796659;179;26447;-79
2024/03/01 00:20:58;;;;;;;35.83;20.27;;;7.60;99.90;;;;;;799146;179;27053;-79
2024/03/01 00:23:26;;;;;;;34.50;19.73;;;7.70;99.90;;;;;;797176;179;26576;-79
2024/03/01 00:25:51;;;;;;;37.73;20.40;;;7.70;99.90;;;;;;798056;177;26438;-78
2024/03/01 00:28:18;;;;;;;35.30;20.83;;;7.70;99.90;;;;;;797107;179;26447;-79
2024/03/01 00:30:45;;;;;;;36.10;20.57;;;7.80;99.90;;;;;;798032;179;26472;-80
2024/03/01 00:33:11;;;;;;;39.73;21.83;;;7.80;99.90;;;;;;798127;178;26435;-78
2024/03/01 00:35:38;;;;;;;38.33;20.53;;;7.80;99.90;;;;;;800535;177;26431;-79
2024/03/01 00:38:04;;;;;;;38.13;21.77;;;7.90;99.90;;;;;;797916;179;27090;-79
2024/03/01 00:40:32;;;;;;;36.00;21.37;;;7.90;99.90;;;;;;799453;178;26450;-79
2024/03/01 00:42:58;;;;;;;37.60;21.03;;;7.90;99.90;;;;;;798723;179;26441;-80
2024/03/01 00:45:24;;;;;;;37.03;20.97;;;7.80;99.90;;;;;;799119;178;26617;-76
2024/03/01 00:47:51;;;;;;;36.10;20.50;;;7.80;99.90;;;;;;800570;179;26969;-78
2024/03/01 00:50:18;;;;;;;37.67;21.77;;;7.80;99.90;;;;;;796776;178;27038;-78
2024/03/01 00:52:45;;;;;;;34.87;19.87;;;7.70;99.90;;;;;;810711;176;26457;-78
2024/03/01 00:55:13;;;;;;;36.73;22.07;;;7.70;99.90;;;;;;806949;176;26757;-80
2024/03/01 00:57:39;;;;;;;34.10;20.57;;;7.60;99.90;;;;;;792061;180;26989;-77
2024/03/01 01:00:08;;;;;;;38.63;20.50;;;7.50;99.90;;;;;;800924;178;26450;-80
2024/03/01 01:02:33;;;;;;;38.03;20.13;;;7.50;99.90;;;;;;787153;178;26488;-80
2024/03/01 01:05:00;;;;;;;35.63;20.57;;;7.50;99.90;;;;;;797484;177;26492;-82
2024/03/01 01:07:26;;;;;;;42.63;21.53;;;7.50;99.90;;;;;;803594;173;26468;-79
2024/03/01 01:09:53;;;;;;;39.17;20.20;;;7.30;99.90;;;;;;797983;178;26452;-78
2024/03/01 01:12:20;;;;;;;39.53;22.33;;;7.30;99.90;;;;;;796916;179;26447;-78
2024/03/01 01:14:46;;;;;;;39.07;21.80;;;7.20;99.90;;;;;;803583;177;26448;-78
2024/03/01 01:17:13;;;;;;;41.87;22.17;;;7.20;99.90;;;;;;798362;179;26488;-79
2024/03/01 01:19:39;;;;;;;40.70;21.43;;;7.20;99.90;;;;;;806283;177;26467;-79
2024/03/01 01:22:06;;;;;;;37.43;20.17;;;7.20;99.90;;;;;;796188;177;26452;-79
2024/03/01 01:24:33;;;;;;;39.80;22.33;;;7.20;99.90;;;;;;809308;176;26445;-80
2024/03/01 01:26:59;;;;;;;36.33;20.37;;;7.20;99.90;;;;;;800400;176;26564;-79
2024/03/01 01:29:26;;;;;;;39.50;21.90;;;7.20;99.90;;;;;;793448;181;26654;-80
2024/03/01 01:31:52;;;;;;;37.80;21.43;;;7.20;99.90;;;;;;793389;179;26471;-78
2024/03/01 01:34:19;;;;;;;41.13;22.30;;;7.20;99.90;;;;;;796284;179;26476;-78
2024/03/01 01:36:46;;;;;;;40.23;21.20;;;7.10;99.90;;;;;;792984;179;27073;-77
2024/03/01 01:39:12;;;;;;;35.43;20.43;;;7.10;99.90;;;;;;797584;178;26582;-80
2024/03/01 01:41:39;;;;;;;39.20;20.87;;;7.10;99.90;;;;;;796293;177;26464;-79
2024/03/01 01:44:05;;;;;;;37.67;21.37;;;7.10;99.90;;;;;;795735;179;26481;-78
2024/03/01 01:46:32;;;;;;;38.57;20.73;;;7.20;99.90;;;;;;796394;179;26463;-78
2024/03/01 01:48:59;;;;;;;42.93;23.13;;;7.20;99.90;;;;;;795856;179;26964;-80
2024/03/01 01:51:25;;;;;;;36.20;21.17;;;7.30;99.90;;;;;;795526;179;26451;-79
2024/03/01 01:53:52;;;;;;;39.17;21.97;;;7.30;99.90;;;;;;795598;179;26672;-78
2024/03/01 01:56:18;;;;;;;37.00;21.83;;;7.30;99.90;;;;;;796641;179;26601;-77
2024/03/01 01:58:45;;;;;;;38.23;22.13;;;7.30;99.90;;;;;;796028;177;26483;-77
2024/03/01 02:01:20;;;;;;;39.07;21.40;;;7.20;99.90;;;;;;794358;179;26992;-79
2024/03/01 02:03:46;;;;;;;36.70;21.17;;;7.20;99.90;;;;;;794797;176;26452;-79
2024/03/01 02:06:13;;;;;;;39.93;22.17;;;7.20;99.90;;;;;;797988;180;26673;-79
2024/03/01 02:08:40;;;;;;;36.40;21.83;;;7.10;99.90;;;;;;796834;179;26458;-79
2024/03/01 02:11:06;;;;;;;43.67;22.77;;;7.00;99.90;;;;;;791960;179;26471;-80
2024/03/01 02:13:33;;;;;;;34.57;20.53;;;7.10;99.90;;;;;;802646;177;26454;-79
2024/03/01 02:16:01;;;;;;;42.13;22.73;;;7.00;99.90;;;;;;797780;179;27553;-79
2024/03/01 02:18:27;;;;;;;39.20;22.60;;;7.10;99.90;;;;;;798607;179;26459;-78
2024/03/01 02:21:00;;;;;;;42.50;22.40;;;7.10;99.90;;;;;;798039;179;26447;-80
2024/03/01 02:23:26;;;;;;;38.83;21.73;;;7.10;99.90;;;;;;799460;179;26431;-78
2024/03/01 02:25:53;;;;;;;35.90;20.23;;;7.10;99.90;;;;;;798873;177;27255;-79
2024/03/01 02:28:20;;;;;;;38.00;21.60;;;7.10;99.90;;;;;;802516;177;26616;-80
2024/03/01 02:30:46;;;;;;;39.20;21.60;;;7.10;99.90;;;;;;801986;177;26465;-80
2024/03/01 02:33:13;;;;;;;39.00;22.03;;;7.10;99.90;;;;;;797360;179;26431;-77
2024/03/01 02:35:40;;;;;;;39.53;21.70;;;7.20;99.90;;;;;;797349;179;26439;-80
2024/03/01 02:38:07;;;;;;;42.90;22.47;;;7.20;99.90;;;;;;799478;178;26461;-80
2024/03/01 02:40:33;;;;;;;41.70;21.83;;;7.20;99.90;;;;;;796448;179;26460;-79
2024/03/01 02:43:00;;;;;;;40.87;23.07;;;7.20;99.90;;;;;;797372;179;27007;-80
2024/03/01 02:45:26;;;;;;;37.70;20.93;;;7.20;99.90;;;;;;797323;179;26433;-78
2024/03/01 02:47:53;;;;;;;43.17;22.33;;;7.20;99.90;;;;;;796452;180;26448;-79
2024/03/01 02:50:20;;;;;;;38.07;20.63;;;7.40;99.90;;;;;;795596;179;26485;-78
2024/03/01 02:52:46;;;;;;;39.90;22.20;;;7.40;99.90;;;;;;795185;179;26646;-78
2024/03/01 02:55:19;;;;;;;36.07;20.60;;;7.40;99.90;;;;;;795616;179;26468;-79
2024/03/01 02:57:40;;;;;;;35.03;20.13;;;7.50;99.90;;;;;;795080;179;26446;-80
2024/03/01 03:00:10;;;;;;;36.73;20.50;;;7.60;99.90;;;;;;795664;179;26500;-79
2024/03/01 03:02:34;;;;;;;40.23;20.30;;;7.60;99.90;;;;;;804866;176;26464;-76
2024/03/01 03:05:01;;;;;;;38.47;21.47;;;7.70;99.90;;;;;;797020;179;26444;-78
2024/03/01 03:07:28;;;;;;;35.60;20.43;;;7.70;99.90;;;;;;797568;179;26456;-79
2024/03/01 03:09:54;;;;;;;38.53;21.10;;;7.70;99.90;;;;;;798337;177;26458;-79
2024/03/01 03:12:21;;;;;;;39.60;20.57;;;7.70;99.90;;;;;;798899;178;26487;-80
2024/03/01 03:14:48;;;;;;;40.30;20.67;;;7.70;99.90;;;;;;788476;180;26463;-77
2024/03/01 03:17:14;;;;;;;37.03;20.90;;;7.70;99.90;;;;;;799665;179;26483;-80
2024/03/01 03:19:42;;;;;;;35.80;21.00;;;7.70;99.90;;;;;;794367;177;26460;-80
2024/03/01 03:22:08;;;;;;;37.57;20.07;;;7.80;99.90;;;;;;798810;179;26459;-78
2024/03/01 03:24:34;;;;;;;35.07;18.93;;;7.80;99.90;;;;;;800158;179;26427;-79
2024/03/01 03:27:00;;;;;;;34.43;20.20;;;7.80;99.90;;;;;;796698;178;26640;-78
2024/03/01 03:29:27;;;;;;;34.10;20.00;;;7.90;99.90;;;;;;799172;179;26641;-80
2024/03/01 03:31:54;;;;;;;31.37;18.50;;;7.90;99.90;;;;;;796759;179;26467;-78
2024/03/01 03:34:20;;;;;;;33.27;18.93;;;8.00;99.90;;;;;;796095;180;26437;-80
2024/03/01 03:36:47;;;;;;;34.73;20.17;;;8.00;99.90;;;;;;798236;176;26436;-80
2024/03/01 03:39:15;;;;;;;37.40;19.93;;;8.00;99.90;;;;;;806355;176;26443;-81
2024/03/01 03:41:40;;;;;;;32.00;18.20;;;8.00;99.90;;;;;;796890;179;26448;-79
2024/03/01 03:44:06;;;;;;;37.77;20.30;;;8.00;99.90;;;;;;798979;179;27043;-77
2024/03/01 03:46:33;;;;;;;33.10;20.20;;;7.90;99.90;;;;;;799329;179;26415;-80
2024/03/01 03:49:00;;;;;;;34.00;19.03;;;8.00;99.90;;;;;;798341;180;26446;-78
2024/03/01 03:51:26;;;;;;;33.33;18.63;;;8.00;99.90;;;;;;797138;177;26446;-76
2024/03/01 03:53:53;;;;;;;35.20;19.30;;;7.90;99.90;;;;;;801451;177;26438;-79
2024/03/01 03:56:19;;;;;;;33.30;18.87;;;7.90;99.90;;;;;;800198;177;26430;-79
2024/03/01 03:58:47;;;;;;;31.37;18.90;;;7.90;99.90;;;;;;798422;178;26432;-79
2024/03/01 04:01:13;;;;;;;29.07;17.80;;;7.80;99.90;;;;;;800228;177;26485;-79
2024/03/01 04:03:40;;;;;;;32.33;18.20;;;7.80;99.90;;;;;;792367;178;26427;-80
2024/03/01 04:06:08;;;;;;;33.23;18.73;;;7.80;99.90;;;;;;794311;179;26610;-78
2024/03/01 04:08:34;;;;;;;29.27;18.10;;;7.70;99.90;;;;;;803194;176;26429;-79
2024/03/01 04:11:05;;;;;;;31.57;18.10;;;7.70;99.90;;;;;;792375;180;26459;-79
2024/03/01 04:13:27;;;;;;;34.20;19.23;;;7.60;99.90;;;;;;787706;181;26456;-80
2024/03/01 04:15:53;;;;;;;33.80;18.67;;;7.60;99.90;;;;;;795556;180;26451;-78
2024/03/01 04:18:20;;;;;;;31.43;18.03;;;7.50;99.90;;;;;;786881;180;26463;-80
2024/03/01 04:20:47;;;;;;;34.73;19.47;;;7.60;99.90;;;;;;798206;178;26611;-80
2024/03/01 04:23:13;;;;;;;34.00;19.03;;;7.60;99.90;;;;;;795873;177;26445;-77
2024/03/01 04:25:40;;;;;;;29.30;18.37;;;7.70;99.90;;;;;;807435;176;27051;-80
2024/03/01 04:28:06;;;;;;;30.83;18.00;;;7.80;99.90;;;;;;794867;179;26464;-79
2024/03/01 04:30:33;;;;;;;34.80;19.30;;;7.90;99.90;;;;;;796340;178;27059;-80
2024/03/01 04:32:59;;;;;;;29.60;18.40;;;7.90;99.90;;;;;;797445;179;26473;-80
2024/03/01 04:35:26;;;;;;;32.67;19.67;;;7.90;99.90;;;;;;783276;180;26537;-80
2024/03/01 04:37:53;;;;;;;35.27;20.20;;;8.00;99.90;;;;;;797093;180;26492;-78
2024/03/01 04:40:19;;;;;;;34.20;19.27;;;7.90;99.90;;;;;;784957;180;26642;-77
2024/03/01 04:42:46;;;;;;;32.20;18.83;;;7.90;99.90;;;;;;796029;178;26445;-78
2024/03/01 04:45:12;;;;;;;34.53;19.57;;;7.90;99.90;;;;;;796785;178;26431;-79
2024/03/01 04:47:39;;;;;;;33.23;19.63;;;7.90;99.90;;;;;;797511;180;26987;-78
2024/03/01 04:50:06;;;;;;;37.60;20.27;;;7.90;99.90;;;;;;797921;179;26454;-75
2024/03/01 04:52:32;;;;;;;37.80;19.53;;;7.90;99.90;;;;;;792791;181;27015;-78
2024/03/01 04:54:59;;;;;;;32.93;19.70;;;7.90;99.90;;;;;;796699;179;26428;-80
2024/03/01 04:57:27;;;;;;;32.07;18.40;;;7.90;99.90;;;;;;797588;177;26982;-78
2024/03/01 04:59:52;;;;;;;31.80;18.70;;;7.90;99.90;;;;;;796911;178;26450;-79
2024/03/01 05:02:19;;;;;;;33.50;19.47;;;7.90;99.90;;;;;;796870;180;26466;-76
2024/03/01 05:04:46;;;;;;;31.53;18.10;;;7.90;99.90;;;;;;800724;176;27640;-79
2024/03/01 05:07:12;;;;;;;33.67;18.57;;;7.90;99.90;;;;;;795849;179;26426;-79
2024/03/01 05:09:39;;;;;;;35.10;19.73;;;7.90;99.90;;;;;;795611;179;26478;-78
2024/03/01 05:12:13;;;;;;;34.00;20.40;;;8.00;99.90;;;;;;795974;179;26613;-79
2024/03/01 05:14:32;;;;;;;33.80;19.27;;;8.00;99.90;;;;;;793760;179;26492;-75
2024/03/01 05:16:59;;;;;;;32.00;18.10;;;7.90;99.90;;;;;;795723;179;27067;-79
2024/03/01 05:19:25;;;;;;;31.13;17.80;;;7.90;99.90;;;;;;802547;176;26600;-79
2024/03/01 05:21:52;;;;;;;35.07;19.37;;;7.90;99.90;;;;;;798367;177;26430;-78
2024/03/01 05:24:19;;;;;;;34.03;18.73;;;8.00;99.90;;;;;;795373;178;26859;-79
2024/03/01 05:26:45;;;;;;;34.40;18.67;;;8.00;99.90;;;;;;795784;179;26471;-76
2024/03/01 05:29:14;;;;;;;31.83;18.87;;;8.00;99.90;;;;;;794355;179;27032;-78
2024/03/01 05:31:43;;;;;;;29.73;18.47;;;8.10;99.90;;;;;;787316;180;26616;-80
2024/03/01 05:34:10;;;;;;;31.77;18.40;;;8.10;99.90;;;;;;801679;176;26486;-76
2024/03/01 05:36:36;;;;;;;29.00;17.63;;;8.10;99.90;;;;;;801299;179;26460;-80
2024/03/01 05:39:15;;;;;;;31.70;18.87;;;8.10;99.90;;;;;;803915;176;26604;-80
2024/03/01 05:41:30;;;;;;;34.63;19.40;;;8.20;99.90;;;;;;807649;172;26433;-81
2024/03/01 05:43:57;;;;;;;33.37;18.17;;;8.20;99.90;;;;;;797750;178;26434;-77
2024/03/01 05:46:25;;;;;;;33.37;18.20;;;8.20;99.90;;;;;;788257;180;26438;-79
2024/03/01 05:48:50;;;;;;;31.87;18.13;;;8.20;99.90;;;;;;800343;179;26570;-78
2024/03/01 05:51:17;;;;;;;34.97;18.50;;;8.30;99.90;;;;;;802909;177;26464;-78
2024/03/01 05:53:45;;;;;;;32.10;18.27;;;8.30;99.90;;;;;;801434;177;26502;-78
2024/03/01 05:56:17;;;;;;;32.00;18.60;;;8.30;99.90;;;;;;804642;176;26426;-79
2024/03/01 05:58:37;;;;;;;31.90;18.67;;;8.20;99.90;;;;;;807358;176;26965;-79
2024/03/01 06:01:04;;;;;;;35.83;20.37;;;8.20;99.90;;;;;;808130;176;26445;-77
2024/03/01 06:03:30;;;;;;;34.77;19.97;;;8.20;99.90;;;;;;789059;181;26457;-80
2024/03/01 06:05:57;;;;;;;30.87;18.43;;;8.10;99.90;;;;;;794890;179;26448;-77
2024/03/01 06:08:23;;;;;;;31.57;18.00;;;8.20;99.90;;;;;;795700;179;26617;-81
2024/03/01 06:10:50;;;;;;;34.03;18.77;;;8.10;99.90;;;;;;795818;179;26472;-79
2024/03/01 06:13:17;;;;;;;36.03;19.47;;;8.10;99.90;;;;;;798211;178;26437;-79
2024/03/01 06:15:43;;;;;;;34.57;19.87;;;8.10;99.90;;;;;;804111;177;26976;-76
2024/03/01 06:18:10;;;;;;;34.77;20.43;;;8.00;99.90;;;;;;797760;177;26433;-79
2024/03/01 06:20:36;;;;;;;36.10;20.13;;;8.00;99.90;;;;;;792640;179;26516;-78
2024/03/01 06:23:03;;;;;;;34.80;19.03;;;8.00;99.90;;;;;;805267;177;26439;-81
2024/03/01 06:25:30;;;;;;;33.03;18.60;;;8.10;99.90;;;;;;805165;178;26591;-79
2024/03/01 06:27:56;;;;;;;29.80;17.63;;;8.10;99.90;;;;;;800477;177;26445;-82
2024/03/01 06:30:23;;;;;;;25.33;14.07;;;8.20;99.90;;;;;;798393;177;26462;-79
2024/03/01 06:32:50;;;;;;;22.30;13.40;;;8.30;99.90;;;;;;793956;177;26986;-78
2024/03/01 06:35:16;;;;;;;14.33;9.43;;;8.40;99.90;;;;;;793245;179;27122;-77
2024/03/01 06:37:43;;;;;;;11.87;6.27;;;8.50;99.90;;;;;;784733;180;26521;-79
2024/03/01 06:40:10;;;;;;;5.37;4.10;;;8.50;99.90;;;;;;795218;177;26479;-78
2024/03/01 06:42:36;;;;;;;5.73;4.13;;;8.60;99.90;;;;;;794711;177;26555;-79
2024/03/01 06:45:05;;;;;;;5.20;3.10;;;8.50;99.90;;;;;;796876;176;26498;-78
2024/03/01 06:47:33;;;;;;;4.00;3.17;;;8.50;99.90;;;;;;796600;176;26512;-78
2024/03/01 06:49:56;;;;;;;6.23;3.60;;;8.50;99.90;;;;;;797869;176;28010;-78
2024/03/01 06:52:24;;;;;;;4.33;3.13;;;8.50;99.90;;;;;;796524;176;27092;-79
2024/03/01 06:54:49;;;;;;;5.57;3.00;;;8.60;99.90;;;;;;794709;179;26479;-77
2024/03/01 06:57:16;;;;;;;2.30;2.03;;;8.50;99.90;;;;;;794686;179;27072;-77
2024/03/01 06:59:42;;;;;;;3.10;2.70;;;8.50;99.90;;;;;;794939;179;26543;-79
2024/03/01 07:02:10;;;;;;;2.53;2.33;;;8.50;99.90;;;;;;796299;179;26475;-78
2024/03/01 07:04:36;;;;;;;2.57;2.37;;;8.50;99.90;;;;;;794821;178;26499;-79
2024/03/01 07:07:03;;;;;;;3.57;2.53;;;8.50;99.90;;;;;;796317;179;26427;-79
2024/03/01 07:09:30;;;;;;;4.67;2.60;;;8.50;99.90;;;;;;797171;179;26476;-78
2024/03/01 07:11:56;;;;;;;3.53;2.90;;;8.60;99.90;;;;;;795489;179;26438;-79
2024/03/01 07:14:23;;;;;;;3.93;2.93;;;8.50;99.90;;;;;;798567;179;26462;-79
2024/03/01 07:16:49;;;;;;;5.30;3.83;;;8.60;99.90;;;;;;803933;173;26463;-77
2024/03/01 07:19:16;;;;;;;5.87;2.93;;;8.60;99.90;;;;;;795304;179;26430;-78
2024/03/01 07:21:43;;;;;;;3.30;3.00;;;8.60;99.90;;;;;;769924;183;26676;-80
2024/03/01 07:24:09;;;;;;;5.60;4.67;;;8.50;99.90;;;;;;798037;177;26483;-79
2024/03/01 07:26:36;;;;;;;4.87;4.17;;;8.50;99.90;;;;;;797525;179;26956;-80
2024/03/01 07:29:02;;;;;;;4.80;4.30;;;8.40;99.90;;;;;;799534;179;26415;-79
2024/03/01 07:31:29;;;;;;;5.47;4.63;;;8.40;99.90;;;;;;785819;179;27021;-79
2024/03/01 07:33:56;;;;;;;5.40;4.70;;;8.40;99.90;;;;;;796702;179;26447;-82
2024/03/01 07:36:22;;;;;;;5.80;4.67;;;8.50;99.90;;;;;;797176;180;26431;-80
2024/03/01 07:38:49;;;;;;;6.30;5.00;;;8.50;99.90;;;;;;800324;176;26427;-80
2024/03/01 07:41:18;;;;;;;5.77;5.17;;;8.50;99.90;;;;;;801233;177;26445;-78
2024/03/01 07:43:42;;;;;;;8.07;6.20;;;8.50;99.90;;;;;;792905;178;27050;-79
2024/03/01 07:46:09;;;;;;;8.13;6.37;;;8.50;99.90;;;;;;798738;179;26440;-79
2024/03/01 07:48:35;;;;;;;9.17;5.97;;;8.50;99.90;;;;;;797832;179;26973;-77
2024/03/01 07:51:02;;;;;;;6.00;5.40;;;8.50;99.90;;;;;;794925;179;26494;-77
2024/03/01 07:53:28;;;;;;;5.03;4.53;;;8.60;99.90;;;;;;797701;179;26972;-78
2024/03/01 07:55:56;;;;;;;8.47;4.67;;;8.50;99.90;;;;;;796349;177;26419;-78
2024/03/01 07:58:24;;;;;;;4.97;4.10;;;8.50;99.90;;;;;;784598;180;26467;-79
2024/03/01 08:00:49;;;;;;;6.10;4.43;;;8.40;99.90;;;;;;798452;178;27248;-77
2024/03/01 08:03:16;;;;;;;7.20;4.33;;;8.40;99.90;;;;;;793388;169;26503;-77
2024/03/01 08:05:43;;;;;;;5.67;4.40;;;8.50;99.90;;;;;;796389;179;26592;-76
2024/03/01 08:08:09;;;;;;;4.80;4.20;;;8.40;99.90;;;;;;799287;179;26572;-77
2024/03/01 08:10:35;;;;;;;5.43;4.20;;;8.50;99.90;;;;;;796747;179;27266;-77
2024/03/01 08:13:02;;;;;;;6.67;4.20;;;8.50;99.90;;;;;;788476;179;27808;-77
2024/03/01 08:15:29;;;;;;;8.53;4.03;;;8.60;99.90;;;;;;781702;182;26476;-77
2024/03/01 08:17:56;;;;;;;5.60;4.53;;;8.60;99.90;;;;;;778751;183;26503;-76
2024/03/01 08:20:25;;;;;;;6.47;4.10;;;8.50;99.90;;;;;;782507;183;26506;-77
2024/03/01 08:22:52;;;;;;;8.13;5.50;;;8.40;99.90;;;;;;778867;183;26567;-76
2024/03/01 08:25:18;;;;;;;6.60;4.70;;;8.30;99.90;;;;;;781315;183;26883;-77
2024/03/01 08:27:45;;;;;;;6.13;4.60;;;8.20;99.90;;;;;;781091;183;26486;-77
2024/03/01 08:30:14;;;;;;;5.53;4.40;;;8.20;99.90;;;;;;780510;183;26495;-77
2024/03/01 08:32:41;;;;;;;5.87;4.17;;;8.20;99.90;;;;;;779445;180;26507;-78
2024/03/01 08:35:08;;;;;;;5.57;4.50;;;8.20;99.90;;;;;;782613;183;26511;-77
2024/03/01 08:37:34;;;;;;;7.40;5.03;;;8.10;99.90;;;;;;776860;183;26510;-77
2024/03/01 08:40:01;;;;;;;7.03;5.23;;;8.10;99.90;;;;;;782153;183;26524;-77
2024/03/01 08:42:28;;;;;;;6.07;4.77;;;8.30;99.90;;;;;;784094;183;28166;-78
2024/03/01 08:44:54;;;;;;;6.63;4.97;;;8.40;99.90;;;;;;782123;183;26486;-78
2024/03/01 08:47:38;;;;;;;6.03;4.40;;;8.40;99.90;;;;;;779944;183;27092;-77
2024/03/01 08:50:38;;;;;;;7.00;5.50;;;8.40;99.90;;;;;;777772;183;26533;-77
2024/03/01 08:53:05;;;;;;;9.20;5.20;;;8.30;99.90;;;;;;778691;180;26566;-76
2024/03/01 08:55:40;;;;;;;6.73;5.13;;;8.30;99.90;;;;;;775838;183;27086;-76
2024/03/01 08:58:06;;;;;;;10.10;5.67;;;8.50;99.90;;;;;;781115;183;26531;-77
2024/03/01 09:00:38;;;;;;;7.10;5.17;;;8.60;99.90;;;;;;781572;183;26497;-77
2024/03/01 09:03:05;;;;;;;5.97;5.00;;;8.50;99.90;;;;;;782280;183;26489;-75
2024/03/01 09:05:32;;;;;;;12.43;6.70;;;8.30;99.90;;;;;;785291;182;26481;-77
2024/03/01 09:07:58;;;;;;;8.87;6.20;;;8.20;99.90;;;;;;782485;182;26526;-77
2024/03/01 09:10:28;;;;;;;7.33;5.63;;;8.20;99.90;;;;;;784024;182;26536;-76
2024/03/01 09:12:55;;;;;;;10.13;5.93;;;8.20;99.90;;;;;;783077;183;26481;-77
2024/03/01 09:15:22;;;;;;;9.57;5.43;;;8.20;99.90;;;;;;785083;183;26496;-77
2024/03/01 09:17:49;;;;;;;7.87;5.57;;;8.20;99.90;;;;;;784005;183;26477;-78
2024/03/01 09:20:17;;;;;;;7.73;6.10;;;8.30;99.90;;;;;;782856;183;27055;-77
2024/03/01 09:22:44;;;;;;;6.10;4.57;;;8.30;99.90;;;;;;782636;183;26547;-77
2024/03/01 09:25:31;;;;;;;5.97;3.67;;;8.50;99.90;;;;;;781122;183;26522;-76
2024/03/01 09:27:58;;;;;;;4.73;3.70;;;8.60;99.90;;;;;;776856;183;26506;-77
2024/03/01 09:30:25;;;;;;;5.60;4.20;;;8.70;99.90;;;;;;784459;183;27051;-78
2024/03/01 09:32:51;;;;;;;4.00;3.60;;;8.80;99.90;;;;;;781675;183;26518;-76
2024/03/01 09:35:17;;;;;;;8.00;3.57;;;9.10;99.90;;;;;;783304;183;27000;-77
2024/03/01 09:37:44;;;;;;;4.50;3.53;;;9.20;99.90;;;;;;783619;183;26574;-78
2024/03/01 09:40:13;;;;;;;5.97;3.40;;;9.40;99.90;;;;;;782104;183;26493;-77
2024/03/01 09:42:45;;;;;;;5.13;3.13;;;9.60;99.90;;;;;;776627;183;26478;-77
2024/03/01 09:45:29;;;;;;;5.10;3.33;;;9.70;99.90;;;;;;782195;183;26480;-77
2024/03/01 09:48:12;;;;;;;12.70;5.60;;;9.90;99.90;;;;;;775921;183;26688;-77
2024/03/01 09:50:38;;;;;;;10.33;4.63;;;10.00;99.90;;;;;;778895;183;26477;-78
2024/03/01 09:53:12;;;;;;;8.43;5.47;;;10.10;99.90;;;;;;782365;180;26497;-78
2024/03/01 09:55:47;;;;;;;8.00;6.13;;;10.10;99.90;;;;;;784334;183;26468;-78
2024/03/01 09:58:25;;;;;;;8.80;5.70;;;10.10;99.90;;;;;;782842;183;26544;-79
2024/03/01 10:01:10;;;;;;;10.73;6.37;;;10.20;99.90;;;;;;781264;183;26478;-78
2024/03/01 10:03:37;;;;;;;11.83;6.17;;;9.90;99.90;;;;;;784202;183;26533;-77
2024/03/01 10:06:25;;;;;;;9.47;6.03;;;10.00;99.90;;;;;;782390;183;26509;-77
2024/03/01 10:09:04;;;;;;;11.07;6.03;;;10.20;99.90;;;;;;777190;183;26482;-79
2024/03/01 10:11:35;;;;;;;10.83;6.33;;;10.50;99.90;;;;;;783578;183;26492;-77
2024/03/01 10:14:02;;;;;;;12.97;6.90;;;10.50;99.90;;;;;;781926;183;26486;-77
2024/03/01 10:16:54;;;;;;;12.03;6.67;;;10.30;99.90;;;;;;784918;183;26485;-77
2024/03/01 10:19:38;;;;;;;10.93;6.47;;;10.20;99.90;;;;;;785893;181;27020;-77
2024/03/01 10:22:32;;;;;;;9.97;6.30;;;10.30;99.90;;;;;;781831;180;27058;-77
2024/03/01 10:25:14;;;;;;;7.80;5.97;;;10.60;99.90;;;;;;777211;183;28071;-77
2024/03/01 10:27:40;;;;;;;10.03;5.93;;;10.80;99.90;;;;;;771884;184;26407;-78
2024/03/01 10:30:09;;;;;;;10.07;7.53;;;10.80;99.90;;;;;;784756;183;26500;-76
2024/03/01 10:32:55;;;;;;;12.97;7.10;;;10.70;99.90;;;;;;784832;180;26522;-77
2024/03/01 10:35:22;;;;;;;10.07;7.20;;;10.70;99.90;;;;;;782895;183;26488;-78
2024/03/01 10:37:57;;;;;;;10.60;6.83;;;10.90;99.90;;;;;;784772;183;27024;-77
2024/03/01 10:40:25;;;;;;;10.10;6.80;;;11.00;99.90;;;;;;785228;183;26475;-78
2024/03/01 10:42:59;;;;;;;9.50;6.67;;;11.30;99.90;;;;;;784565;180;26482;-78
2024/03/01 10:45:27;;;;;;;9.40;6.53;;;11.50;99.90;;;;;;785288;183;26472;-78
2024/03/01 10:47:55;;;;;;;9.53;7.63;;;11.40;99.90;;;;;;783247;183;26500;-78
2024/03/01 10:50:20;;;;;;;6.23;3.83;;;11.00;99.90;;;;;;783529;180;27030;-77
2024/03/01 10:52:54;;;;;;;7.77;3.30;;;10.90;99.90;;;;;;782483;183;26489;-78
2024/03/01 10:55:21;;;;;;;3.90;2.67;;;10.80;99.90;;;;;;781509;183;27158;-78
2024/03/01 10:57:55;;;;;;;5.07;3.13;;;11.10;99.90;;;;;;782496;180;26542;-78
2024/03/01 11:00:22;;;;;;;10.60;5.07;;;11.10;99.90;;;;;;780151;183;26459;-79
2024/03/01 11:02:51;;;;;;;4.90;2.60;;;10.90;99.90;;;;;;782778;183;26508;-78
2024/03/01 11:05:24;;;;;;;109.03;47.03;;;10.90;99.90;;;;;;783618;183;26476;-77
2024/03/01 11:07:50;;;;;;;9.10;4.60;;;10.90;99.90;;;;;;783852;183;26469;-78
2024/03/01 11:10:26;;;;;;;6.17;3.10;;;11.00;99.90;;;;;;778822;183;26485;-78
2024/03/01 11:12:58;;;;;;;3.70;3.17;;;11.20;99.90;;;;;;780609;183;26503;-78
2024/03/01 11:15:25;;;;;;;3.30;3.00;;;11.30;99.90;;;;;;779429;183;26551;-77
2024/03/01 11:17:51;;;;;;;6.00;3.40;;;12.00;99.90;;;;;;784263;183;27084;-77
2024/03/01 11:20:20;;;;;;;87.93;45.87;;;12.00;99.90;;;;;;781363;183;26515;-77
2024/03/01 11:22:47;;;;;;;63.23;26.50;;;12.30;99.90;;;;;;779752;181;26528;-77
2024/03/01 11:25:16;;;;;;;7.40;4.40;;;12.60;96.60;;;;;;783233;183;26531;-78
2024/03/01 11:27:46;;;;;;;38.83;17.30;;;12.30;96.40;;;;;;783632;183;28068;-77
2024/03/01 11:30:12;;;;;;;3.13;1.63;;;12.20;96.70;;;;;;782719;182;26662;-78
2024/03/01 11:32:39;;;;;;;123.03;50.73;;;12.00;96.20;;;;;;785229;182;26549;-78
2024/03/01 11:35:19;;;;;;;53.60;23.80;;;11.80;97.10;;;;;;782406;183;26555;-77
2024/03/01 11:38:00;;;;;;;5.53;2.30;;;11.90;97.50;;;;;;779794;183;26664;-78
2024/03/01 11:40:31;;;;;;;3.03;1.60;;;12.00;96.50;;;;;;782523;183;26534;-77
2024/03/01 11:43:03;;;;;;;6.83;3.60;;;13.10;93.10;;;;;;779224;183;26611;-77
2024/03/01 11:45:37;;;;;;;37.47;16.40;;;13.50;92.60;;;;;;782315;183;26676;-78
2024/03/01 11:48:19;;;;;;;18.20;9.03;;;14.90;84.90;;;;;;781833;183;26522;-78
2024/03/01 11:51:04;;;;;;;36.43;18.77;;;13.80;86.80;;;;;;778143;183;26475;-77
2024/03/01 11:53:53;;;;;;;5.63;2.67;;;13.30;92.40;;;;;;767323;183;26531;-83
2024/03/01 11:56:26;;;;;;;4.23;2.20;;;14.60;88.70;;;;;;783889;183;26485;-80
2024/03/01 11:58:54;;;;;;;2.00;1.80;;;14.90;81.80;;;;;;783148;183;26497;-79
2024/03/01 12:01:37;;;;;;;4.33;2.30;;;14.90;72.90;;;;;;778897;183;26516;-78
2024/03/01 12:04:23;;;;;;;3.97;2.27;;;14.90;70.80;;;;;;770843;183;26539;-77
2024/03/01 12:07:09;;;;;;;3.50;2.23;;;15.20;69.70;;;;;;780524;183;26855;-78
2024/03/01 12:09:52;;;;;;;3.97;2.40;;;15.40;70.60;;;;;;783382;183;26511;-78
2024/03/01 12:12:34;;;;;;;13.90;7.17;;;16.40;69.50;;;;;;780323;183;26510;-79
2024/03/01 12:15:04;;;;;;;6.30;2.70;;;16.70;62.40;;;;;;779263;183;26730;-77
2024/03/01 12:17:32;;;;;;;7.83;4.83;;;16.10;59.90;;;;;;776607;183;26502;-79
2024/03/01 12:19:57;;;;;;;6.03;2.60;;;16.10;59.20;;;;;;776395;183;26563;-78
2024/03/01 12:22:46;;;;;;;3.10;1.70;;;15.50;71.40;;;;;;779304;183;27110;-78
2024/03/01 12:25:13;;;;;;;22.37;12.10;;;15.70;69.50;;;;;;768853;181;26565;-78
2024/03/01 12:27:55;;;;;;;3.00;2.37;;;15.40;76.10;;;;;;785851;183;26461;-78
2024/03/01 12:30:31;;;;;;;4.97;2.83;;;15.10;77.80;;;;;;782641;183;26493;-81
2024/03/01 12:33:10;;;;;;;7.70;4.73;;;15.30;81.10;;;;;;783695;183;26473;-79
2024/03/01 12:35:39;;;;;;;3.00;2.30;;;15.80;65.70;;;;;;783241;183;26461;-79
2024/03/01 12:38:16;;;;;;;2.30;1.80;;;15.00;71.50;;;;;;782392;183;26459;-79
2024/03/01 12:41:00;;;;;;;5.30;3.10;;;15.50;67.00;;;;;;785320;182;26847;-79
2024/03/01 12:43:32;;;;;;;2.53;2.33;;;14.60;73.00;;;;;;789638;179;26504;-78
2024/03/01 12:46:05;;;;;;;6.23;2.67;;;14.00;80.70;;;;;;784792;183;26477;-79
2024/03/01 12:48:34;;;;;;;4.20;2.40;;;14.40;77.60;;;;;;780694;183;26477;-78
2024/03/01 12:51:08;;;;;;;4.10;2.70;;;14.40;82.70;;;;;;780210;183;26476;-79